createdAt,value
2018-11-02T00:01:29.552Z,2.03
2018-11-02T00:03:58.314Z,2.20
2018-11-02T00:06:27.003Z,2.17
2018-11-02T00:08:55.791Z,1.93
2018-11-02T00:11:24.351Z,2.37
2018-11-02T00:13:53.260Z,2.20
2018-11-02T00:16:22.784Z,2.00
2018-11-02T00:18:51.354Z,1.67
2018-11-02T00:21:19.990Z,1.70
2018-11-02T00:23:48.583Z,2.00
2018-11-02T00:26:17.164Z,1.60
2018-11-02T00:28:45.795Z,1.90
2018-11-02T00:31:14.421Z,1.97
2018-11-02T00:33:42.961Z,1.83
2018-11-02T00:36:11.444Z,2.10
2018-11-02T00:38:39.974Z,1.83
2018-11-02T00:41:08.520Z,1.37
2018-11-02T00:43:37.012Z,1.23
2018-11-02T00:46:06.054Z,1.27
2018-11-02T00:48:34.589Z,1.27
2018-11-02T00:51:03.108Z,1.50
2018-11-02T00:53:31.633Z,1.20
2018-11-02T00:56:00.254Z,1.50
2018-11-02T00:58:28.700Z,1.60
2018-11-02T01:00:57.934Z,2.67
2018-11-02T01:03:26.413Z,1.43
2018-11-02T01:05:54.932Z,1.20
2018-11-02T01:08:23.476Z,1.93
2018-11-02T01:10:51.986Z,1.50
2018-11-02T01:13:20.471Z,1.53
2018-11-02T01:15:49.182Z,2.00
2018-11-02T01:18:18.580Z,1.80
2018-11-02T01:20:47.061Z,1.17
2018-11-02T01:23:15.697Z,0.73
2018-11-02T01:25:44.215Z,1.20
2018-11-02T01:28:12.746Z,1.37
2018-11-02T01:30:41.244Z,1.30
2018-11-02T01:33:09.719Z,1.20
2018-11-02T01:35:38.308Z,1.60
2018-11-02T01:38:06.870Z,1.20
2018-11-02T01:40:35.419Z,1.17
2018-11-02T01:43:03.963Z,1.10
2018-11-02T01:45:32.498Z,1.60
2018-11-02T01:48:00.996Z,1.53
2018-11-02T01:50:29.484Z,2.90
2018-11-02T01:52:58.059Z,1.50
2018-11-02T01:55:26.622Z,1.50
2018-11-02T01:57:55.142Z,1.70
2018-11-02T02:00:23.749Z,1.40
2018-11-02T02:02:52.247Z,1.40
2018-11-02T02:05:20.766Z,1.40
2018-11-02T02:07:49.238Z,1.10
2018-11-02T02:10:17.785Z,1.60
2018-11-02T02:12:46.308Z,1.40
2018-11-02T02:15:14.940Z,1.67
2018-11-02T02:17:43.638Z,1.43
2018-11-02T02:20:12.141Z,1.17
2018-11-02T02:22:40.684Z,1.33
2018-11-02T02:25:09.264Z,1.73
2018-11-02T02:27:38.687Z,1.40
2018-11-02T02:30:10.969Z,1.00
2018-11-02T02:32:39.484Z,1.63
2018-11-02T02:35:09.030Z,1.30
2018-11-02T02:37:38.373Z,1.73
2018-11-02T02:40:07.942Z,1.30
2018-11-02T02:42:36.573Z,1.40
2018-11-02T02:45:07.369Z,1.13
2018-11-02T02:47:35.892Z,1.10
2018-11-02T02:50:05.551Z,1.47
2018-11-02T02:52:34.026Z,1.20
2018-11-02T02:55:02.625Z,1.30
2018-11-02T02:57:31.172Z,1.33
2018-11-02T02:59:59.723Z,1.40
2018-11-02T03:02:28.184Z,1.47
2018-11-02T03:04:56.884Z,1.30
2018-11-02T03:07:25.431Z,0.90
2018-11-02T03:09:54.026Z,1.97
2018-11-02T03:12:22.534Z,1.53
2018-11-02T03:14:51.092Z,2.03
2018-11-02T03:17:19.627Z,1.47
2018-11-02T03:19:48.148Z,1.30
2018-11-02T03:22:16.688Z,1.53
2018-11-02T03:24:45.310Z,1.90
2018-11-02T03:27:13.791Z,1.50
2018-11-02T03:29:42.296Z,1.97
2018-11-02T03:32:10.859Z,1.50
2018-11-02T03:34:39.429Z,1.60
2018-11-02T03:37:07.966Z,1.90
2018-11-02T03:39:36.505Z,1.47
2018-11-02T03:42:05.631Z,2.00
2018-11-02T03:44:34.171Z,1.73
2018-11-02T03:47:02.690Z,1.20
2018-11-02T03:49:31.181Z,1.50
2018-11-02T03:51:59.685Z,2.00
2018-11-02T03:54:28.854Z,1.93
2018-11-02T03:56:57.470Z,1.37
2018-11-02T03:59:25.894Z,1.37
2018-11-02T04:01:54.464Z,2.23
2018-11-02T04:04:23.086Z,1.47
2018-11-02T04:06:51.629Z,1.83
2018-11-02T04:09:20.253Z,2.20
2018-11-02T04:11:48.723Z,2.30
2018-11-02T04:14:17.322Z,2.00
2018-11-02T04:16:45.911Z,2.20
2018-11-02T04:19:14.464Z,2.80
2018-11-02T04:21:49.402Z,2.30
2018-11-02T04:24:18.066Z,1.60
2018-11-02T04:26:46.578Z,1.60
2018-11-02T04:29:15.774Z,1.47
2018-11-02T04:31:44.862Z,1.67
2018-11-02T04:34:14.085Z,1.70
2018-11-02T04:36:43.418Z,1.70
2018-11-02T04:39:13.418Z,1.33
2018-11-02T04:41:41.968Z,1.50
2018-11-02T04:44:11.143Z,1.60
2018-11-02T04:46:39.857Z,1.83
2018-11-02T04:49:08.925Z,1.70
2018-11-02T04:51:37.895Z,1.60
2018-11-02T04:54:06.454Z,1.80
2018-11-02T04:56:35.923Z,2.23
2018-11-02T04:59:04.423Z,2.33
2018-11-02T05:01:32.923Z,1.97
2018-11-02T05:04:01.451Z,1.60
2018-11-02T05:06:30.000Z,2.23
2018-11-02T05:08:58.552Z,1.80
2018-11-02T05:11:27.177Z,1.93
2018-11-02T05:13:55.714Z,2.23
2018-11-02T05:16:24.213Z,2.27
2018-11-02T05:18:54.826Z,1.77
2018-11-02T05:21:24.818Z,2.00
2018-11-02T05:23:53.207Z,1.90
2018-11-02T05:26:21.739Z,2.27
2018-11-02T05:28:50.298Z,2.27
2018-11-02T05:31:19.475Z,1.70
2018-11-02T05:33:48.022Z,1.80
2018-11-02T05:36:16.604Z,1.90
2018-11-02T05:38:45.167Z,1.90
2018-11-02T05:41:13.668Z,2.07
2018-11-02T05:43:42.108Z,1.80
2018-11-02T05:46:10.734Z,1.83
2018-11-02T05:48:39.304Z,1.33
2018-11-02T05:51:07.812Z,1.93
2018-11-02T05:53:36.282Z,1.50
2018-11-02T05:56:04.845Z,1.67
2018-11-02T05:58:33.322Z,1.90
2018-11-02T06:01:01.934Z,1.60
2018-11-02T06:03:30.399Z,1.77
2018-11-02T06:05:58.974Z,1.60
2018-11-02T06:08:27.535Z,1.87
2018-11-02T06:10:56.038Z,1.50
2018-11-02T06:13:24.666Z,1.97
2018-11-02T06:15:53.404Z,1.40
2018-11-02T06:18:21.992Z,1.50
2018-11-02T06:20:50.495Z,1.37
2018-11-02T06:23:19.040Z,1.70
2018-11-02T06:25:47.710Z,1.83
2018-11-02T06:28:16.413Z,2.20
2018-11-02T06:30:44.996Z,1.97
2018-11-02T06:33:13.607Z,1.70
2018-11-02T06:35:42.249Z,2.13
2018-11-02T06:38:11.471Z,1.83
2018-11-02T06:40:40.100Z,1.90
2018-11-02T06:43:09.645Z,2.13
2018-11-02T06:45:38.318Z,2.00
2018-11-02T06:48:06.904Z,1.40
2018-11-02T06:50:35.567Z,1.77
2018-11-02T06:53:04.430Z,1.80
2018-11-02T06:55:33.572Z,1.73
2018-11-02T06:58:02.110Z,1.80
2018-11-02T07:00:30.763Z,1.63
2018-11-02T07:02:59.371Z,1.47
2018-11-02T07:05:28.010Z,2.37
2018-11-02T07:07:57.274Z,1.70
2018-11-02T07:10:25.799Z,1.60
2018-11-02T07:12:54.285Z,2.03
2018-11-02T07:15:22.951Z,1.63
2018-11-02T07:17:51.498Z,1.77
2018-11-02T07:20:20.216Z,1.73
2018-11-02T07:22:48.844Z,1.57
2018-11-02T07:25:17.690Z,1.93
2018-11-02T07:27:46.124Z,1.53
2018-11-02T07:30:14.668Z,1.60
2018-11-02T07:32:43.244Z,1.93
2018-11-02T07:35:11.728Z,1.57
2018-11-02T07:37:40.224Z,1.70
2018-11-02T07:40:10.206Z,1.30
2018-11-02T07:42:38.841Z,1.50
2018-11-02T07:45:08.184Z,1.57
2018-11-02T07:47:36.870Z,1.40
2018-11-02T07:50:06.855Z,1.20
2018-11-02T07:52:35.594Z,1.00
2018-11-02T07:55:04.419Z,1.83
2018-11-02T07:57:33.727Z,1.20
2018-11-02T08:00:02.268Z,1.93
2018-11-02T08:02:31.101Z,1.50
2018-11-02T08:04:59.635Z,1.57
2018-11-02T08:07:28.148Z,1.17
2018-11-02T08:09:57.242Z,1.30
2018-11-02T08:12:25.907Z,1.10
2018-11-02T08:14:54.452Z,1.43
2018-11-02T08:17:23.060Z,1.50
2018-11-02T08:19:51.508Z,0.90
2018-11-02T08:22:20.047Z,1.20
2018-11-02T08:24:48.801Z,1.07
2018-11-02T08:27:17.343Z,1.40
2018-11-02T08:29:45.895Z,1.60
2018-11-02T08:32:14.501Z,1.20
2018-11-02T08:34:43.106Z,1.40
2018-11-02T08:37:11.695Z,1.40
2018-11-02T08:39:40.302Z,1.20
2018-11-02T08:42:08.844Z,1.33
2018-11-02T08:44:37.387Z,1.40
2018-11-02T08:47:06.049Z,1.57
2018-11-02T08:49:34.613Z,1.77
2018-11-02T08:52:03.322Z,1.87
2018-11-02T08:54:31.910Z,1.50
2018-11-02T08:57:00.500Z,1.20
2018-11-02T08:59:29.048Z,1.10
2018-11-02T09:01:57.869Z,1.13
2018-11-02T09:04:26.713Z,0.80
2018-11-02T09:06:55.400Z,1.17
2018-11-02T09:09:24.091Z,1.27
2018-11-02T09:11:52.658Z,1.03
2018-11-02T09:14:21.403Z,1.17
2018-11-02T09:16:50.171Z,1.33
2018-11-02T09:19:19.092Z,1.30
2018-11-02T09:21:47.897Z,0.93
2018-11-02T09:24:16.691Z,1.10
2018-11-02T09:26:45.239Z,1.23
2018-11-02T09:29:14.140Z,1.10
2018-11-02T09:31:42.923Z,1.13
2018-11-02T09:34:11.818Z,1.77
2018-11-02T09:36:40.626Z,1.33
2018-11-02T09:39:11.872Z,1.00
2018-11-02T09:41:40.665Z,1.30
2018-11-02T09:44:09.353Z,1.13
2018-11-02T09:46:38.059Z,1.63
2018-11-02T09:49:06.643Z,1.27
2018-11-02T09:51:35.920Z,0.97
2018-11-02T09:54:04.548Z,1.20
2018-11-02T09:56:33.164Z,1.13
2018-11-02T09:59:01.720Z,0.80
2018-11-02T10:01:30.263Z,0.73
2018-11-02T10:03:59.047Z,1.07
2018-11-02T10:06:28.133Z,1.10
2018-11-02T10:08:56.961Z,0.90
2018-11-02T10:11:25.765Z,0.80
2018-11-02T10:13:54.582Z,0.87
2018-11-02T10:16:23.537Z,0.90
2018-11-02T10:18:52.269Z,0.87
2018-11-02T10:21:21.776Z,0.90
2018-11-02T10:23:50.378Z,1.30
2018-11-02T10:26:18.919Z,0.50
2018-11-02T10:28:48.888Z,1.00
2018-11-02T10:31:17.461Z,1.07
2018-11-02T10:33:45.996Z,1.40
2018-11-02T10:36:14.664Z,1.10
2018-11-02T10:38:43.160Z,1.20
2018-11-02T10:41:14.958Z,0.80
2018-11-02T10:43:43.552Z,1.07
2018-11-02T10:46:12.055Z,0.80
2018-11-02T10:48:40.736Z,0.93
2018-11-02T10:51:10.152Z,1.30
2018-11-02T10:53:38.728Z,1.27
2018-11-02T10:56:07.363Z,0.90
2018-11-02T10:58:35.936Z,1.00
2018-11-02T11:01:10.094Z,0.80
2018-11-02T11:03:39.231Z,0.80
2018-11-02T11:06:07.858Z,1.00
2018-11-02T11:08:36.571Z,0.87
2018-11-02T11:11:05.511Z,1.00
2018-11-02T11:13:34.529Z,0.80
2018-11-02T11:16:03.220Z,0.90
2018-11-02T11:18:32.741Z,0.83
2018-11-02T11:21:01.444Z,1.03
2018-11-02T11:23:32.073Z,0.93
2018-11-02T11:26:00.623Z,0.80
2018-11-02T11:28:29.324Z,0.90
2018-11-02T11:30:57.929Z,1.00
2018-11-02T11:33:26.472Z,0.77
2018-11-02T11:35:55.277Z,0.80
2018-11-02T11:38:23.782Z,1.10
2018-11-02T11:40:52.489Z,0.93
2018-11-02T11:43:21.728Z,1.10
2018-11-02T11:45:50.400Z,0.70
2018-11-02T11:48:20.444Z,0.70
2018-11-02T11:50:49.983Z,1.00
2018-11-02T11:53:18.504Z,0.70
2018-11-02T11:55:47.184Z,0.70
2018-11-02T11:58:15.940Z,0.80
2018-11-02T12:00:44.681Z,0.70
2018-11-02T12:03:13.327Z,1.27
2018-11-02T12:05:42.015Z,0.90
2018-11-02T12:08:10.726Z,0.83
2018-11-02T12:10:39.446Z,1.20
2018-11-02T12:13:08.051Z,0.80
2018-11-02T12:15:36.653Z,0.77
2018-11-02T12:18:06.378Z,0.70
2018-11-02T12:20:34.888Z,0.87
2018-11-02T12:23:03.913Z,0.90
2018-11-02T12:25:33.210Z,0.70
2018-11-02T12:28:02.014Z,0.80
2018-11-02T12:30:30.794Z,0.87
2018-11-02T12:32:59.525Z,0.77
2018-11-02T12:35:28.247Z,1.00
2018-11-02T12:37:57.041Z,0.73
2018-11-02T12:40:26.281Z,1.33
2018-11-02T12:42:55.585Z,0.70
2018-11-02T12:45:24.558Z,0.87
2018-11-02T12:47:53.324Z,1.40
2018-11-02T12:50:24.906Z,1.00
2018-11-02T12:52:54.530Z,0.80
2018-11-02T12:55:23.490Z,1.00
2018-11-02T12:57:52.208Z,1.10
2018-11-02T13:00:23.233Z,0.93
2018-11-02T13:02:52.522Z,0.80
2018-11-02T13:05:21.255Z,1.17
2018-11-02T13:07:49.840Z,1.00
2018-11-02T13:10:19.624Z,1.20
2018-11-02T13:12:48.107Z,0.60
2018-11-02T13:15:18.767Z,0.70
2018-11-02T13:17:48.337Z,1.10
2018-11-02T13:20:17.222Z,0.90
2018-11-02T13:22:46.747Z,0.70
2018-11-02T13:25:16.715Z,0.80
2018-11-02T13:27:45.976Z,0.80
2018-11-02T13:30:14.740Z,0.70
2018-11-02T13:32:43.190Z,0.77
2018-11-02T13:35:13.981Z,0.93
2018-11-02T13:37:43.275Z,0.70
2018-11-02T13:40:13.145Z,0.77
2018-11-02T13:42:42.177Z,0.60
2018-11-02T13:45:12.272Z,0.80
2018-11-02T13:47:41.642Z,0.87
2018-11-02T13:50:10.644Z,0.90
2018-11-02T13:52:39.700Z,0.80
2018-11-02T13:55:09.049Z,0.90
2018-11-02T13:57:37.976Z,1.10
2018-11-02T14:00:09.464Z,0.90
2018-11-02T14:02:38.262Z,0.80
2018-11-02T14:05:08.217Z,0.77
2018-11-02T14:07:36.852Z,0.90
2018-11-02T14:10:05.796Z,0.90
2018-11-02T14:12:34.415Z,0.80
2018-11-02T14:15:03.046Z,0.70
2018-11-02T14:17:32.452Z,0.60
2018-11-02T14:20:01.920Z,0.70
2018-11-02T14:22:30.664Z,0.90
2018-11-02T14:24:59.309Z,0.93
2018-11-02T14:27:27.928Z,0.90
2018-11-02T14:29:56.506Z,0.90
2018-11-02T14:32:25.045Z,0.70
2018-11-02T14:34:53.795Z,0.60
2018-11-02T14:37:22.362Z,0.90
2018-11-02T14:39:51.641Z,1.17
2018-11-02T14:42:20.294Z,0.80
2018-11-02T14:44:49.009Z,0.60
2018-11-02T14:47:17.645Z,0.90
2018-11-02T14:49:46.659Z,0.70
2018-11-02T14:52:15.492Z,0.97
2018-11-02T14:54:44.383Z,2.20
2018-11-02T14:57:13.005Z,2.23
2018-11-02T14:59:42.083Z,2.03
2018-11-02T15:02:10.651Z,2.40
2018-11-02T15:04:39.856Z,2.33
2018-11-02T15:07:08.416Z,5.27
2018-11-02T15:09:37.126Z,2.83
2018-11-02T15:12:05.985Z,1.57
2018-11-02T15:14:34.803Z,2.00
2018-11-02T15:17:03.387Z,1.30
2018-11-02T15:19:32.735Z,2.20
2018-11-02T15:22:01.423Z,1.20
2018-11-02T15:24:30.134Z,1.37
2018-11-02T15:26:58.614Z,1.80
2018-11-02T15:29:27.151Z,1.83
2018-11-02T15:31:55.808Z,4.83
2018-11-02T15:34:24.455Z,13.70
2018-11-02T15:36:53.190Z,17.13
2018-11-02T15:39:21.757Z,19.17
2018-11-02T15:41:50.504Z,11.57
2018-11-02T15:44:19.422Z,100.70
2018-11-02T15:46:48.083Z,96.90
2018-11-02T15:49:16.835Z,39.47
2018-11-02T15:51:45.513Z,27.87
2018-11-02T15:54:14.413Z,34.87
2018-11-02T15:56:42.982Z,30.37
2018-11-02T15:59:11.498Z,46.40
2018-11-02T16:01:40.402Z,54.30
2018-11-02T16:04:09.189Z,50.07
2018-11-02T16:06:37.890Z,38.93
2018-11-02T16:09:12.997Z,22.03
2018-11-02T16:11:41.822Z,48.20
2018-11-02T16:14:10.651Z,49.30
2018-11-02T16:16:39.457Z,36.30
2018-11-02T16:19:08.144Z,18.00
2018-11-02T16:21:37.593Z,17.50
2018-11-02T16:24:11.376Z,40.20
2018-11-02T16:26:40.362Z,26.93
2018-11-02T16:29:09.464Z,16.13
2018-11-02T16:31:38.163Z,8.73
2018-11-02T16:34:06.890Z,3.60
2018-11-02T16:36:35.798Z,3.60
2018-11-02T16:39:07.085Z,2.40
2018-11-02T16:41:35.584Z,2.40
2018-11-02T16:44:04.264Z,2.30
2018-11-02T16:46:34.237Z,2.40
2018-11-02T16:49:03.054Z,2.80
2018-11-02T16:51:33.696Z,2.33
2018-11-02T16:54:02.415Z,3.90
2018-11-02T16:56:34.000Z,5.50
2018-11-02T16:59:03.034Z,5.10
2018-11-02T17:01:31.825Z,7.07
2018-11-02T17:04:00.493Z,6.37
2018-11-02T17:06:29.101Z,4.87
2018-11-02T17:08:58.708Z,4.80
2018-11-02T17:11:27.542Z,4.10
2018-11-02T17:13:56.338Z,3.53
2018-11-02T17:16:25.058Z,4.33
2018-11-02T17:18:53.939Z,4.17
2018-11-02T17:21:23.222Z,4.83
2018-11-02T17:23:51.922Z,4.53
2018-11-02T17:26:20.968Z,3.83
2018-11-02T17:28:53.745Z,3.97
2018-11-02T17:31:22.688Z,4.67
2018-11-02T17:33:52.534Z,5.03
2018-11-02T17:36:21.258Z,4.83
2018-11-02T17:38:52.490Z,4.73
2018-11-02T17:41:22.079Z,4.20
2018-11-02T17:43:52.913Z,3.30
2018-11-02T17:46:28.579Z,3.50
2018-11-02T17:48:58.204Z,3.53
2018-11-02T17:51:28.002Z,3.30
2018-11-02T17:53:56.802Z,3.33
2018-11-02T17:56:25.586Z,3.47
2018-11-02T17:58:54.489Z,3.77
2018-11-02T18:01:25.108Z,3.70
2018-11-02T18:03:53.755Z,4.67
2018-11-02T18:06:22.454Z,4.00
2018-11-02T18:08:51.463Z,4.57
2018-11-02T18:11:20.217Z,3.93
2018-11-02T18:13:49.003Z,4.37
2018-11-02T18:16:17.652Z,3.50
2018-11-02T18:18:47.776Z,4.07
2018-11-02T18:21:16.429Z,3.97
2018-11-02T18:23:45.109Z,5.10
2018-11-02T18:26:13.690Z,5.00
2018-11-02T18:28:42.328Z,6.07
2018-11-02T18:31:10.881Z,9.13
2018-11-02T18:33:39.783Z,7.20
2018-11-02T18:36:08.451Z,7.10
2018-11-02T18:38:37.091Z,6.30
2018-11-02T18:41:05.948Z,6.13
2018-11-02T18:43:34.612Z,6.03
2018-11-02T18:46:03.490Z,5.43
2018-11-02T18:48:32.177Z,6.17
2018-11-02T18:51:00.817Z,5.73
2018-11-02T18:53:29.495Z,6.20
2018-11-02T18:55:58.155Z,6.60
2018-11-02T18:58:26.842Z,7.63
2018-11-02T19:00:55.361Z,7.17
2018-11-02T19:03:24.043Z,7.30
2018-11-02T19:05:52.880Z,8.07
2018-11-02T19:08:21.593Z,6.43
2018-11-02T19:10:50.208Z,6.27
2018-11-02T19:13:18.811Z,7.13
2018-11-02T19:15:48.051Z,6.70
2018-11-02T19:18:17.094Z,7.70
2018-11-02T19:20:45.777Z,7.03
2018-11-02T19:23:14.694Z,6.57
2018-11-02T19:25:43.334Z,5.77
2018-11-02T19:28:12.074Z,5.80
2018-11-02T19:30:41.859Z,4.63
2018-11-02T19:33:10.542Z,5.10
2018-11-02T19:35:39.371Z,4.67
2018-11-02T19:38:08.212Z,4.60
2018-11-02T19:40:36.818Z,6.67
2018-11-02T19:43:06.074Z,5.10
2018-11-02T19:45:37.102Z,6.00
2018-11-02T19:48:06.326Z,5.27
2018-11-02T19:50:35.054Z,5.13
2018-11-02T19:53:03.725Z,4.60
2018-11-02T19:55:32.570Z,4.93
2018-11-02T19:58:01.339Z,4.23
2018-11-02T20:00:30.151Z,4.97
2018-11-02T20:02:58.871Z,4.73
2018-11-02T20:05:27.614Z,5.30
2018-11-02T20:07:56.310Z,5.67
2018-11-02T20:10:24.885Z,5.73
2018-11-02T20:12:53.685Z,6.03
2018-11-02T20:15:22.684Z,6.37
2018-11-02T20:17:51.413Z,5.87
2018-11-02T20:20:20.000Z,5.97
2018-11-02T20:22:48.754Z,5.60
2018-11-02T20:25:18.246Z,6.10
2018-11-02T20:27:46.989Z,6.37
2018-11-02T20:30:17.341Z,6.53
2018-11-02T20:32:46.675Z,6.10
2018-11-02T20:35:15.700Z,6.37
2018-11-02T20:37:44.299Z,6.50
2018-11-02T20:40:17.722Z,6.33
2018-11-02T20:42:46.720Z,6.07
2018-11-02T20:45:17.170Z,7.20
2018-11-02T20:47:51.676Z,5.77
2018-11-02T20:50:20.389Z,6.23
2018-11-02T20:52:52.115Z,6.23
2018-11-02T20:55:22.593Z,6.13
2018-11-02T20:57:51.354Z,6.23
2018-11-02T21:00:21.392Z,6.93
2018-11-02T21:02:50.191Z,7.87
2018-11-02T21:05:19.448Z,7.80
2018-11-02T21:07:48.569Z,7.80
2018-11-02T21:10:18.332Z,7.70
2018-11-02T21:12:47.137Z,8.53
2018-11-02T21:15:20.049Z,8.37
2018-11-02T21:17:49.121Z,9.10
2018-11-02T21:20:18.912Z,10.27
2018-11-02T21:22:47.465Z,10.83
2018-11-02T21:25:16.300Z,14.90
2018-11-02T21:27:45.484Z,16.27
2018-11-02T21:30:21.556Z,16.67
2018-11-02T21:32:50.695Z,16.97
2018-11-02T21:35:20.905Z,17.20
2018-11-02T21:37:49.821Z,18.43
2018-11-02T21:40:22.398Z,18.07
2018-11-02T21:42:50.969Z,17.43
2018-11-02T21:45:20.710Z,17.87
2018-11-02T21:47:49.261Z,17.80
2018-11-02T21:50:18.112Z,17.37
2018-11-02T21:52:46.696Z,16.73
2018-11-02T21:55:15.468Z,16.33
2018-11-02T21:57:44.041Z,16.60
2018-11-02T22:00:15.394Z,13.10
2018-11-02T22:02:44.277Z,12.53
2018-11-02T22:05:13.622Z,10.97
2018-11-02T22:07:43.228Z,11.07
2018-11-02T22:10:12.566Z,9.17
2018-11-02T22:12:41.030Z,8.93
2018-11-02T22:15:10.099Z,8.63
2018-11-02T22:17:39.288Z,8.83
2018-11-02T22:20:09.521Z,8.30
2018-11-02T22:22:38.068Z,7.60
2018-11-02T22:25:07.731Z,6.77
2018-11-02T22:27:36.500Z,6.93
2018-11-02T22:30:06.414Z,6.20
2018-11-02T22:32:34.896Z,6.97
2018-11-02T22:35:03.548Z,6.90
2018-11-02T22:37:32.123Z,6.87
2018-11-02T22:40:00.660Z,6.67
2018-11-02T22:42:29.313Z,6.23
2018-11-02T22:44:57.933Z,6.57
2018-11-02T22:47:26.498Z,6.43
2018-11-02T22:49:55.098Z,7.10
2018-11-02T22:52:23.728Z,6.67
2018-11-02T22:54:52.407Z,6.90
2018-11-02T22:57:20.998Z,7.37
2018-11-02T22:59:49.528Z,6.20
2018-11-02T23:02:18.094Z,6.67
2018-11-02T23:04:46.771Z,6.70
2018-11-02T23:07:15.383Z,6.93
2018-11-02T23:09:43.936Z,6.70
2018-11-02T23:12:12.535Z,7.27
2018-11-02T23:14:41.135Z,6.20
2018-11-02T23:17:09.743Z,6.03
2018-11-02T23:19:38.477Z,7.03
2018-11-02T23:22:07.238Z,6.13
2018-11-02T23:24:35.808Z,6.40
2018-11-02T23:27:04.435Z,6.23
2018-11-02T23:29:33.012Z,6.00
2018-11-02T23:32:01.515Z,5.77
2018-11-02T23:34:30.083Z,6.17
2018-11-02T23:36:58.663Z,6.33
2018-11-02T23:39:27.234Z,5.63
2018-11-02T23:41:55.751Z,6.23
2018-11-02T23:44:24.333Z,5.53
2018-11-02T23:46:52.969Z,6.17
2018-11-02T23:49:21.519Z,6.27
2018-11-02T23:51:50.186Z,5.60
2018-11-02T23:54:18.813Z,5.57
2018-11-02T23:56:47.475Z,6.43
2018-11-02T23:59:16.123Z,5.87
